Thursday, July 31, 2014
23:47 UTC
  |  Log In   |  Register Free
Airport Search:

Newnan Coweta County Airport
(KCCO)

Newnan Coweta County Airport Diagram
No Airport Diagram Available

FAA data valid effective July 24, 2014 until September 18, 2014 (unless otherwise noted).

 
 
 
 
 
 
 
 
 
 
 
 
 
 

Current Aviation Weather for Newnan Coweta County Airport (KCCO)

The most recent METAR observation for KCCO was updated at: 1835 UTC
METAR Summary (Translated METAR)
KCCO
281835Z AUTO 31010G21KT 280V340 10SM SCT047 SCT065 33/22 A2994 RMK AO2 T03300216
KFFC
(10.3 nm NE from KCCO)
281753Z AUTO 27011G17KT 8SM SCT044 32/22 A2994 RMK AO2 SLP129 T03220217 10328 20256 58010
TAF
No TAF information found within 50 nm of KCCO
  Airport Weather Conditions for KCCO

 Current Weather at CCO
80° F
Mostly Cloudy
Northeast winds at 12.7 mph
CCO NOAA Radar

Pressure: 30.03 in
Humidity: 75%
Wind: from the Northeast at 12.7 gusting to 20.7 MPH (11 gusting to 18 KT)
Dew Point: 71.1°F
Visibility: 10.00 mi


Airport Weather Forecast for KCCO

Translated METAR and TAF for KCCO
Translated METAR for KCCO (2341 UTC 31 July 2014)
found at http://aviationweather.gov/adds/metars/
 
METAR text: KCCO 312335Z AUTO 05006KT 10SM SCT014 SCT034 OVC050 25/22 A3005 RMK AO2 T02450218
Conditions at: KCCO (NEWNAN , GA, US) observed 2335 UTC 31 July 2014
Temperature: 24.5°C (76°F)
Dewpoint: 21.8°C (71°F) [RH = 85%]
Pressure (altimeter): 30.05 inches Hg (1017.7 mb)
Winds: from the NE (50 degrees) at 7 MPH (6 knots; 3.1 m/s)
Visibility: 10 or more miles (16+ km)
Ceiling: 5000 feet AGL
Clouds: scattered clouds at 1400 feet AGL
scattered clouds at 3400 feet AGL
overcast cloud deck at 5000 feet AGL
Weather: automated observation with no human augmentation;
there may or may not be significant weather present at this time
Translated TAF for KCCO

There is no translated TAF available for this airport

Find All Airport Services Find A Hotel Find A Rental Car Find A Golf Course Find A Restaurant $100 Hamburger



FBO's on the Field
FBO Company Facility Photos Services Transportation Aviation Fuel Prices: Prices include tax
Catering Weather Repair Courtesy Rental Type 100LL JetA JetA+ MOGAS 8087
 
CCO Airport Services

This FBO has not yet been rated
FS:Shell
Last Updated: Jul-23
Login to update fuel prices
SS:
Contact CCO Airport ServicesMore FBO Information
 
Add another FBO Facility Photos Catering Weather Repair Courtesy Rental Type 100LL JetA JetA+ MOGAS 8087
Services Transportation Aviation Fuel Prices: Prices include tax


GlobalAir.com Airport Resource Center model-print
model-print
model-print
model-print